createdAt,value
2018-01-21T00:01:08.243Z,2.20
2018-01-21T00:03:34.476Z,2.08
2018-01-21T00:06:01.079Z,2.65
2018-01-21T00:08:28.123Z,1.67
2018-01-21T00:10:55.096Z,1.70
2018-01-21T00:13:21.458Z,1.90
2018-01-21T00:15:48.981Z,3.45
2018-01-21T00:18:15.199Z,1.90
2018-01-21T00:20:41.559Z,1.40
2018-01-21T00:23:09.183Z,1.50
2018-01-21T00:25:36.421Z,1.62
2018-01-21T00:28:03.732Z,1.70
2018-01-21T00:30:30.733Z,1.25
2018-01-21T00:32:57.870Z,2.95
2018-01-21T00:35:24.975Z,1.45
2018-01-21T00:37:51.944Z,1.77
2018-01-21T00:40:19.124Z,1.10
2018-01-21T00:42:45.346Z,1.52
2018-01-21T00:45:12.320Z,1.10
2018-01-21T00:47:39.179Z,1.35
2018-01-21T00:50:06.944Z,3.33
2018-01-21T00:52:33.518Z,1.95
2018-01-21T00:55:01.160Z,1.60
2018-01-21T00:57:28.290Z,1.45
2018-01-21T00:59:55.862Z,1.70
2018-01-21T01:02:22.100Z,2.10
2018-01-21T01:04:48.301Z,2.20
2018-01-21T01:07:15.063Z,2.03
2018-01-21T01:09:41.255Z,2.03
2018-01-21T01:12:07.475Z,2.20
2018-01-21T01:14:34.233Z,1.90
2018-01-21T01:17:01.255Z,2.00
2018-01-21T01:19:27.507Z,2.17
2018-01-21T01:21:53.716Z,2.10
2018-01-21T01:24:19.962Z,2.20
2018-01-21T01:26:46.789Z,2.45
2018-01-21T01:29:13.248Z,2.10
2018-01-21T01:31:40.906Z,2.10
2018-01-21T01:34:07.110Z,2.25
2018-01-21T01:36:33.992Z,1.67
2018-01-21T01:39:00.882Z,2.00
2018-01-21T01:41:27.813Z,1.92
2018-01-21T01:43:55.791Z,1.70
2018-01-21T01:46:22.742Z,3.42
2018-01-21T01:48:53.957Z,3.03
2018-01-21T01:51:21.748Z,2.45
2018-01-21T01:53:48.510Z,2.40
2018-01-21T01:56:14.724Z,4.00
2018-01-21T01:58:40.946Z,3.65
2018-01-21T02:01:07.576Z,7.15
2018-01-21T02:03:33.783Z,4.53
2018-01-21T02:06:00.669Z,3.92
2018-01-21T02:08:26.921Z,3.83
2018-01-21T02:10:53.216Z,4.10
2018-01-21T02:13:19.398Z,5.43
2018-01-21T02:15:46.162Z,5.10
2018-01-21T02:18:13.562Z,3.83
2018-01-21T02:20:40.569Z,3.50
2018-01-21T02:23:09.060Z,3.70
2018-01-21T02:25:35.344Z,4.00
2018-01-21T02:28:02.251Z,3.70
2018-01-21T02:30:28.468Z,3.35
2018-01-21T02:32:55.549Z,3.05
2018-01-21T02:35:23.496Z,3.45
2018-01-21T02:37:49.906Z,4.40
2018-01-21T02:40:16.998Z,3.87
2018-01-21T02:42:44.247Z,3.42
2018-01-21T02:45:10.990Z,2.85
2018-01-21T02:47:38.199Z,3.45
2018-01-21T02:50:04.423Z,3.00
2018-01-21T02:52:32.166Z,2.72
2018-01-21T02:54:59.377Z,5.87
2018-01-21T02:57:25.765Z,7.80
2018-01-21T02:59:53.456Z,7.82
2018-01-21T03:02:19.680Z,7.70
2018-01-21T03:04:46.549Z,10.27
2018-01-21T03:07:14.043Z,5.78
2018-01-21T03:09:41.082Z,5.32
2018-01-21T03:12:07.449Z,4.12
2018-01-21T03:14:33.896Z,3.62
2018-01-21T03:17:01.534Z,3.83
2018-01-21T03:19:28.238Z,4.90
2018-01-21T03:21:54.427Z,4.35
2018-01-21T03:24:20.659Z,3.53
2018-01-21T03:26:47.429Z,4.20
2018-01-21T03:29:14.172Z,3.47
2018-01-21T03:31:40.435Z,3.15
2018-01-21T03:34:07.255Z,3.37
2018-01-21T03:36:35.197Z,7.87
2018-01-21T03:39:01.989Z,4.60
2018-01-21T03:41:28.212Z,8.88
2018-01-21T03:43:54.998Z,5.45
2018-01-21T03:46:21.247Z,5.85
2018-01-21T03:48:48.782Z,4.87
2018-01-21T03:51:15.573Z,5.97
2018-01-21T03:53:42.548Z,3.80
2018-01-21T03:56:09.224Z,4.25
2018-01-21T03:58:36.202Z,4.20
2018-01-21T04:01:03.163Z,3.87
2018-01-21T04:03:29.383Z,6.03
2018-01-21T04:05:55.829Z,3.95
2018-01-21T04:08:22.400Z,2.83
2018-01-21T04:10:49.937Z,2.65
2018-01-21T04:13:16.751Z,3.65
2018-01-21T04:15:43.084Z,4.20
2018-01-21T04:18:09.342Z,3.40
2018-01-21T04:20:35.545Z,3.70
2018-01-21T04:23:02.420Z,3.17
2018-01-21T04:25:28.697Z,3.58
2018-01-21T04:27:56.325Z,3.62
2018-01-21T04:30:22.581Z,3.55
2018-01-21T04:32:49.553Z,4.12
2018-01-21T04:35:16.378Z,5.50
2018-01-21T04:37:43.120Z,4.97
2018-01-21T04:40:10.129Z,6.85
2018-01-21T04:42:37.024Z,8.23
2018-01-21T04:45:04.077Z,6.15
2018-01-21T04:47:31.092Z,5.65
2018-01-21T04:49:58.041Z,7.28
2018-01-21T04:52:25.945Z,7.87
2018-01-21T04:54:52.210Z,7.03
2018-01-21T04:57:20.256Z,9.35
2018-01-21T04:59:46.446Z,8.85
2018-01-21T05:02:12.967Z,9.75
2018-01-21T05:04:39.215Z,7.80
2018-01-21T05:07:05.706Z,9.23
2018-01-21T05:09:33.917Z,10.20
2018-01-21T05:12:00.963Z,11.18
2018-01-21T05:14:27.146Z,11.40
2018-01-21T05:16:53.707Z,9.18
2018-01-21T05:19:20.668Z,10.93
2018-01-21T05:21:46.886Z,10.90
2018-01-21T05:24:13.838Z,11.63
2018-01-21T05:26:40.784Z,10.55
2018-01-21T05:29:07.005Z,9.30
2018-01-21T05:31:34.023Z,8.48
2018-01-21T05:34:00.284Z,9.10
2018-01-21T05:36:27.230Z,9.00
2018-01-21T05:38:54.398Z,9.68
2018-01-21T05:41:21.186Z,9.75
2018-01-21T05:43:47.378Z,13.98
2018-01-21T05:46:13.683Z,12.20
2018-01-21T05:48:41.387Z,11.82
2018-01-21T05:51:07.877Z,12.73
2018-01-21T05:53:34.106Z,11.32
2018-01-21T05:56:01.073Z,11.57
2018-01-21T05:58:27.626Z,11.73
2018-01-21T06:00:54.421Z,9.88
2018-01-21T06:03:21.842Z,10.15
2018-01-21T06:05:48.359Z,10.15
2018-01-21T06:08:14.651Z,14.43
2018-01-21T06:10:41.309Z,13.23
2018-01-21T06:13:08.540Z,12.15
2018-01-21T06:15:36.506Z,13.10
2018-01-21T06:18:03.243Z,10.43
2018-01-21T06:20:29.953Z,13.30
2018-01-21T06:22:56.961Z,12.55
2018-01-21T06:25:23.186Z,17.05
2018-01-21T06:27:49.464Z,11.57
2018-01-21T06:30:16.630Z,10.50
2018-01-21T06:32:43.750Z,11.60
2018-01-21T06:35:10.065Z,10.18
2018-01-21T06:37:36.274Z,10.65
2018-01-21T06:40:03.168Z,10.45
2018-01-21T06:42:30.150Z,9.55
2018-01-21T06:44:56.734Z,13.13
2018-01-21T06:47:22.933Z,8.63
2018-01-21T06:49:49.133Z,14.07
2018-01-21T06:52:15.795Z,13.50
2018-01-21T06:54:42.798Z,12.73
2018-01-21T06:57:09.771Z,17.77
2018-01-21T06:59:36.396Z,14.00
2018-01-21T07:02:04.744Z,14.00
2018-01-21T07:04:32.038Z,16.02
2018-01-21T07:06:58.857Z,18.77
2018-01-21T07:09:25.449Z,16.40
2018-01-21T07:11:53.039Z,16.10
2018-01-21T07:14:21.033Z,16.20
2018-01-21T07:16:48.255Z,20.05
2018-01-21T07:19:15.225Z,17.35
2018-01-21T07:21:42.182Z,15.98
2018-01-21T07:24:08.404Z,19.55
2018-01-21T07:26:34.635Z,19.67
2018-01-21T07:29:00.855Z,15.43
2018-01-21T07:31:27.611Z,18.30
2018-01-21T07:33:54.171Z,17.25
2018-01-21T07:36:21.172Z,12.35
2018-01-21T07:38:47.950Z,16.12
2018-01-21T07:41:14.205Z,15.82
2018-01-21T07:43:41.059Z,15.52
2018-01-21T07:46:08.045Z,15.48
2018-01-21T07:48:35.768Z,16.90
2018-01-21T07:51:03.281Z,15.60
2018-01-21T07:53:29.522Z,13.60
2018-01-21T07:55:55.743Z,15.30
2018-01-21T07:58:22.042Z,15.88
2018-01-21T08:00:48.850Z,10.63
2018-01-21T08:03:16.064Z,13.18
2018-01-21T08:05:43.115Z,13.70
2018-01-21T08:08:09.394Z,12.13
2018-01-21T08:10:36.700Z,12.50
2018-01-21T08:13:03.887Z,11.75
2018-01-21T08:15:30.899Z,11.48
2018-01-21T08:17:57.700Z,14.77
2018-01-21T08:20:24.199Z,10.95
2018-01-21T08:22:52.482Z,13.75
2018-01-21T08:25:19.477Z,11.50
2018-01-21T08:27:45.734Z,8.48
2018-01-21T08:30:11.962Z,9.77
2018-01-21T08:32:38.208Z,10.70
2018-01-21T08:35:11.689Z,11.35
2018-01-21T08:37:44.302Z,10.13
2018-01-21T08:40:17.523Z,10.10
2018-01-21T08:42:43.775Z,16.50
2018-01-21T08:45:10.182Z,10.88
2018-01-21T08:47:38.277Z,9.68
2018-01-21T08:50:04.754Z,11.82
2018-01-21T08:52:32.128Z,9.95
2018-01-21T08:54:59.597Z,8.82
2018-01-21T08:57:26.814Z,10.70
2018-01-21T08:59:54.021Z,12.18
2018-01-21T09:02:20.240Z,9.27
2018-01-21T09:04:46.598Z,10.15
2018-01-21T09:07:12.962Z,10.32
2018-01-21T09:09:39.791Z,10.35
2018-01-21T09:12:07.086Z,10.70
2018-01-21T09:14:33.941Z,10.32
2018-01-21T09:17:00.203Z,9.32
2018-01-21T09:19:27.881Z,8.52
2018-01-21T09:21:54.422Z,8.40
2018-01-21T09:24:21.515Z,8.40
2018-01-21T09:26:47.759Z,9.18
2018-01-21T09:29:14.563Z,10.57
2018-01-21T09:31:40.797Z,12.93
2018-01-21T09:34:07.807Z,10.82
2018-01-21T09:36:35.294Z,11.38
2018-01-21T09:39:01.699Z,9.65
2018-01-21T09:41:28.313Z,9.52
2018-01-21T09:43:56.037Z,9.27
2018-01-21T09:46:22.950Z,12.32
2018-01-21T09:48:50.112Z,11.40
2018-01-21T09:51:17.502Z,10.95
2018-01-21T09:53:44.540Z,9.05
2018-01-21T09:56:10.750Z,14.57
2018-01-21T09:58:38.013Z,12.27
2018-01-21T10:01:04.217Z,9.13
2018-01-21T10:03:31.048Z,10.38
2018-01-21T10:05:57.816Z,10.65
2018-01-21T10:08:25.057Z,11.60
2018-01-21T10:10:51.926Z,12.32
2018-01-21T10:13:18.765Z,11.30
2018-01-21T10:15:45.066Z,11.63
2018-01-21T10:18:11.368Z,9.55
2018-01-21T10:20:39.256Z,13.90
2018-01-21T10:23:06.551Z,11.88
2018-01-21T10:25:32.873Z,9.75
2018-01-21T10:28:00.991Z,10.85
2018-01-21T10:30:29.041Z,10.75
2018-01-21T10:32:55.609Z,13.73
2018-01-21T10:35:23.591Z,12.27
2018-01-21T10:37:49.811Z,9.07
2018-01-21T10:40:16.393Z,11.52
2018-01-21T10:42:43.001Z,10.32
2018-01-21T10:45:10.903Z,10.40
2018-01-21T10:47:37.235Z,12.40
2018-01-21T10:50:04.092Z,9.38
2018-01-21T10:52:31.435Z,9.38
2018-01-21T10:54:58.228Z,11.63
2018-01-21T10:57:25.538Z,11.18
2018-01-21T10:59:52.136Z,9.95
2018-01-21T11:02:20.352Z,10.63
2018-01-21T11:04:46.679Z,13.18
2018-01-21T11:07:13.756Z,11.52
2018-01-21T11:09:40.679Z,10.07
2018-01-21T11:12:07.932Z,9.15
2018-01-21T11:14:34.160Z,9.18
2018-01-21T11:17:02.023Z,8.27
2018-01-21T11:19:29.047Z,8.55
2018-01-21T11:21:55.254Z,8.77
2018-01-21T11:24:21.530Z,8.18
2018-01-21T11:26:48.531Z,9.30
2018-01-21T11:29:15.248Z,7.95
2018-01-21T11:31:41.639Z,10.80
2018-01-21T11:34:07.871Z,7.90
2018-01-21T11:36:34.460Z,9.20
2018-01-21T11:39:01.741Z,10.15
2018-01-21T11:41:29.799Z,7.80
2018-01-21T11:43:56.294Z,8.68
2018-01-21T11:46:22.626Z,7.68
2018-01-21T11:48:49.424Z,7.65
2018-01-21T11:51:15.678Z,6.80
2018-01-21T11:53:42.634Z,10.65
2018-01-21T11:56:08.934Z,8.40
2018-01-21T11:58:35.257Z,10.60
2018-01-21T12:01:02.583Z,10.50
2018-01-21T12:03:28.812Z,8.82
2018-01-21T12:05:55.404Z,10.10
2018-01-21T12:08:22.912Z,13.00
2018-01-21T12:10:49.679Z,9.77
2018-01-21T12:13:20.950Z,10.80
2018-01-21T12:15:47.947Z,9.63
2018-01-21T12:18:14.143Z,8.95
2018-01-21T12:20:40.435Z,7.47
2018-01-21T12:23:07.958Z,8.77
2018-01-21T12:25:34.174Z,8.38
2018-01-21T12:28:00.404Z,8.65
2018-01-21T12:30:26.639Z,8.43
2018-01-21T12:32:53.780Z,9.35
2018-01-21T12:35:28.468Z,11.88
2018-01-21T12:37:55.512Z,8.50
2018-01-21T12:40:23.030Z,9.63
2018-01-21T12:42:49.342Z,9.23
2018-01-21T12:45:16.494Z,10.25
2018-01-21T12:47:42.985Z,15.32
2018-01-21T12:50:10.163Z,14.10
2018-01-21T12:52:36.408Z,10.35
2018-01-21T12:55:02.671Z,11.10
2018-01-21T12:57:29.522Z,17.52
2018-01-21T12:59:56.516Z,8.30
2018-01-21T13:02:23.334Z,8.52
2018-01-21T13:04:50.154Z,11.80
2018-01-21T13:07:17.490Z,8.20
2018-01-21T13:09:44.232Z,10.45
2018-01-21T13:12:10.427Z,11.20
2018-01-21T13:14:36.747Z,9.50
2018-01-21T13:17:03.516Z,10.98
2018-01-21T13:19:31.274Z,7.57
2018-01-21T13:21:57.490Z,7.18
2018-01-21T13:24:23.723Z,13.32
2018-01-21T13:26:50.321Z,15.45
2018-01-21T13:29:17.993Z,12.43
2018-01-21T13:31:44.207Z,15.07
2018-01-21T13:34:10.435Z,15.68
2018-01-21T13:36:36.972Z,17.55
2018-01-21T13:39:04.097Z,16.50
2018-01-21T13:41:31.152Z,14.60
2018-01-21T13:43:59.000Z,15.57
2018-01-21T13:46:25.227Z,14.02
2018-01-21T13:48:51.470Z,12.55
2018-01-21T13:51:18.479Z,15.68
2018-01-21T13:53:45.140Z,12.00
2018-01-21T13:56:12.182Z,15.98
2018-01-21T13:58:38.635Z,18.55
2018-01-21T14:01:06.095Z,17.00
2018-01-21T14:03:32.359Z,22.58
2018-01-21T14:05:59.188Z,193.65
2018-01-21T14:08:26.264Z,17.83
2018-01-21T14:10:52.556Z,24.00
2018-01-21T14:13:19.449Z,53.83
2018-01-21T14:15:46.020Z,19.92
2018-01-21T14:18:12.653Z,20.95
2018-01-21T14:20:40.006Z,91.70
2018-01-21T14:23:06.403Z,84.55
2018-01-21T14:25:33.421Z,77.75
2018-01-21T14:28:01.533Z,24.05
2018-01-21T14:30:27.999Z,48.75
2018-01-21T14:32:55.689Z,47.35
2018-01-21T14:35:21.967Z,19.58
2018-01-21T14:37:48.196Z,18.05
2018-01-21T14:40:16.116Z,16.05
2018-01-21T14:42:42.816Z,14.35
2018-01-21T14:45:09.898Z,13.50
2018-01-21T14:47:36.131Z,11.20
2018-01-21T14:50:02.945Z,12.88
2018-01-21T14:52:29.995Z,13.93
2018-01-21T14:54:56.340Z,10.50
2018-01-21T14:57:22.614Z,11.38
2018-01-21T14:59:49.346Z,15.95
2018-01-21T15:02:16.165Z,13.20
2018-01-21T15:04:42.404Z,12.68
2018-01-21T15:07:09.231Z,13.93
2018-01-21T15:09:36.347Z,14.00
2018-01-21T15:12:03.869Z,15.93
2018-01-21T15:14:30.183Z,17.75
2018-01-21T15:16:57.064Z,13.40
2018-01-21T15:19:24.228Z,16.05
2018-01-21T15:21:52.228Z,19.23
2018-01-21T15:24:18.505Z,19.27
2018-01-21T15:26:44.797Z,18.15
2018-01-21T15:29:11.084Z,17.85
2018-01-21T15:31:38.388Z,21.77
2018-01-21T15:34:05.258Z,14.40
2018-01-21T15:36:31.629Z,18.48
2018-01-21T15:38:59.020Z,17.73
2018-01-21T15:41:26.680Z,16.12
2018-01-21T15:43:53.609Z,15.80
2018-01-21T15:46:20.029Z,20.55
2018-01-21T15:48:47.409Z,16.05
2018-01-21T15:51:14.184Z,15.85
2018-01-21T15:53:41.211Z,17.00
2018-01-21T15:56:07.517Z,15.98
2018-01-21T15:58:34.627Z,16.37
2018-01-21T16:01:02.001Z,15.32
2018-01-21T16:03:29.673Z,14.82
2018-01-21T16:05:56.979Z,17.83
2018-01-21T16:08:24.219Z,13.82
2018-01-21T16:10:50.454Z,15.75
2018-01-21T16:13:17.680Z,13.23
2018-01-21T16:15:45.198Z,14.85
2018-01-21T16:18:12.763Z,11.48
2018-01-21T16:20:39.201Z,12.30
2018-01-21T16:23:05.536Z,16.85
2018-01-21T16:25:32.594Z,16.42
2018-01-21T16:27:58.874Z,15.00
2018-01-21T16:30:26.527Z,16.73
2018-01-21T16:32:53.361Z,15.38
2018-01-21T16:35:19.866Z,16.62
2018-01-21T16:37:58.279Z,14.68
2018-01-21T16:40:24.861Z,14.25
2018-01-21T16:42:51.936Z,16.65
2018-01-21T16:45:18.673Z,15.60
2018-01-21T16:47:46.266Z,20.88
2018-01-21T16:50:13.551Z,17.55
2018-01-21T16:52:40.528Z,14.85
2018-01-21T16:55:08.021Z,15.55
2018-01-21T16:57:34.250Z,14.80
2018-01-21T17:00:00.500Z,13.68
2018-01-21T17:02:26.742Z,13.13
2018-01-21T17:04:54.459Z,15.60
2018-01-21T17:07:22.130Z,11.20
2018-01-21T17:09:49.797Z,17.50
2018-01-21T17:12:16.739Z,15.18
2018-01-21T17:14:44.427Z,15.25
2018-01-21T17:17:10.668Z,17.80
2018-01-21T17:19:38.186Z,13.55
2018-01-21T17:22:05.215Z,18.87
2018-01-21T17:24:32.244Z,13.38
2018-01-21T17:26:59.469Z,10.88
2018-01-21T17:29:26.894Z,19.17
2018-01-21T17:31:54.548Z,15.93
2018-01-21T17:34:21.760Z,16.90
2018-01-21T17:36:48.629Z,20.80
2018-01-21T17:39:14.888Z,19.27
2018-01-21T17:41:42.096Z,20.08
2018-01-21T17:44:09.680Z,18.30
2018-01-21T17:46:36.662Z,22.60
2018-01-21T17:49:03.724Z,30.37
2018-01-21T17:51:32.195Z,26.08
2018-01-21T17:53:59.541Z,17.83
2018-01-21T17:56:27.762Z,21.05
2018-01-21T17:58:54.017Z,20.15
2018-01-21T18:01:20.849Z,19.25
2018-01-21T18:03:47.114Z,18.45
2018-01-21T18:06:15.358Z,24.58
2018-01-21T18:08:41.686Z,18.27
2018-01-21T18:20:53.016Z,22.15
2018-01-21T18:23:19.718Z,21.37
2018-01-21T18:25:46.676Z,19.30
2018-01-21T18:28:12.910Z,24.45
2018-01-21T18:30:39.836Z,25.60
2018-01-21T18:33:06.598Z,27.00
2018-01-21T18:35:32.824Z,31.75
2018-01-21T18:38:00.002Z,35.85
2018-01-21T18:40:26.691Z,28.08
2018-01-21T18:42:53.795Z,34.13
2018-01-21T18:45:20.601Z,25.42
2018-01-21T18:47:47.312Z,34.20
2018-01-21T18:50:14.325Z,28.58
2018-01-21T18:52:40.641Z,23.17
2018-01-21T18:55:06.937Z,26.98
2018-01-21T18:57:33.621Z,31.37
2018-01-21T18:59:59.931Z,39.53
2018-01-21T19:02:26.405Z,32.08
2018-01-21T19:04:53.558Z,29.87
2018-01-21T19:07:20.548Z,26.70
2018-01-21T19:09:47.972Z,25.27
2018-01-21T19:12:14.378Z,38.67
2018-01-21T19:14:41.900Z,34.42
2018-01-21T19:17:08.142Z,30.17
2018-01-21T19:19:34.515Z,36.72
2018-01-21T19:22:01.556Z,31.25
2018-01-21T19:24:28.725Z,40.83
2018-01-21T19:26:55.720Z,31.33
2018-01-21T19:29:23.356Z,30.17
2018-01-21T19:31:49.643Z,38.60
2018-01-21T19:34:16.629Z,40.30
2018-01-21T19:36:43.603Z,39.20
2018-01-21T19:39:13.971Z,38.15
2018-01-21T19:41:41.595Z,38.30
2018-01-21T19:44:23.281Z,33.63
2018-01-21T19:46:49.734Z,32.47
2018-01-21T19:49:16.408Z,38.47
2018-01-21T19:51:43.553Z,33.13
2018-01-21T19:54:11.829Z,36.63
2018-01-21T19:56:38.056Z,30.65
2018-01-21T19:59:04.282Z,23.87
2018-01-21T20:01:31.049Z,26.73
2018-01-21T20:03:57.457Z,27.33
2018-01-21T20:06:24.088Z,39.40
2018-01-21T20:08:51.222Z,28.80
2018-01-21T20:11:18.714Z,46.20
2018-01-21T20:13:45.945Z,43.45
2018-01-21T20:16:13.199Z,42.40
2018-01-21T20:18:39.435Z,44.65
2018-01-21T20:21:05.996Z,40.88
2018-01-21T20:23:33.118Z,33.10
2018-01-21T20:25:59.803Z,46.25
2018-01-21T20:28:26.831Z,34.88
2018-01-21T20:30:53.321Z,30.15
2018-01-21T20:33:19.562Z,37.80
2018-01-21T20:35:46.762Z,39.00
2018-01-21T20:38:12.994Z,39.65
2018-01-21T20:40:39.743Z,37.97
2018-01-21T20:43:06.140Z,43.25
2018-01-21T20:45:33.547Z,36.35
2018-01-21T20:47:59.782Z,33.45
2018-01-21T20:50:26.771Z,32.20
2018-01-21T20:52:53.534Z,30.80
2018-01-21T20:55:19.768Z,50.47
2018-01-21T20:57:46.045Z,48.35
2018-01-21T21:00:12.286Z,48.72
2018-01-21T21:02:38.663Z,42.50
2018-01-21T21:05:06.789Z,45.67
2018-01-21T21:07:33.193Z,49.92
2018-01-21T21:10:00.157Z,45.47
2018-01-21T21:12:26.777Z,40.10
2018-01-21T21:14:53.735Z,38.80
2018-01-21T21:17:20.527Z,36.22
2018-01-21T21:19:46.780Z,33.72
2018-01-21T21:22:14.114Z,33.70
2018-01-21T21:24:40.386Z,40.05
2018-01-21T21:27:07.242Z,38.40
2018-01-21T21:29:34.467Z,35.03
2018-01-21T21:32:01.731Z,36.30
2018-01-21T21:34:28.366Z,33.03
2018-01-21T21:36:55.678Z,52.35
2018-01-21T21:39:24.119Z,42.35
2018-01-21T21:41:51.024Z,52.10
2018-01-21T21:44:19.015Z,48.85
2018-01-21T21:46:45.625Z,45.42
2018-01-21T21:49:12.646Z,32.97
2018-01-21T21:51:38.862Z,35.05
2018-01-21T21:54:05.570Z,40.58
2018-01-21T21:56:32.721Z,34.20
2018-01-21T21:59:00.447Z,38.30
2018-01-21T22:01:26.785Z,28.60
2018-01-21T22:03:54.197Z,25.75
2018-01-21T22:06:21.310Z,24.33
2018-01-21T22:08:49.704Z,26.70
2018-01-21T22:11:16.232Z,29.23
2018-01-21T22:13:42.954Z,21.37
2018-01-21T22:16:09.538Z,22.05
2018-01-21T22:18:35.824Z,19.42
2018-01-21T22:21:02.613Z,28.67
2018-01-21T22:23:28.847Z,24.87
2018-01-21T22:25:56.071Z,26.42
2018-01-21T22:28:22.767Z,22.02
2018-01-21T22:30:50.294Z,24.23
2018-01-21T22:33:16.560Z,20.90
2018-01-21T22:35:43.519Z,16.15
2018-01-21T22:38:10.129Z,16.85
2018-01-21T22:40:38.172Z,17.23
2018-01-21T22:43:05.052Z,23.15
2018-01-21T22:45:31.633Z,17.33
2018-01-21T22:47:58.744Z,17.40
2018-01-21T22:50:25.487Z,14.23
2018-01-21T22:52:52.331Z,19.33
2018-01-21T22:55:19.623Z,16.65
2018-01-21T22:57:46.194Z,18.37
2018-01-21T23:00:13.624Z,21.37
2018-01-21T23:02:41.150Z,20.92
2018-01-21T23:05:07.430Z,21.98
2018-01-21T23:07:33.887Z,18.80
2018-01-21T23:10:00.396Z,15.02
2018-01-21T23:12:28.141Z,12.50
2018-01-21T23:24:40.174Z,15.57
2018-01-21T23:27:06.406Z,13.85
2018-01-21T23:29:33.614Z,11.93
2018-01-21T23:32:01.186Z,12.90
2018-01-21T23:34:27.956Z,15.40
2018-01-21T23:36:55.959Z,13.43
2018-01-21T23:39:23.020Z,12.20
2018-01-21T23:41:50.907Z,11.95
2018-01-21T23:44:18.181Z,12.15
2018-01-21T23:46:44.780Z,12.77
2018-01-21T23:49:12.460Z,11.70
2018-01-21T23:51:38.703Z,11.12
2018-01-21T23:54:05.073Z,10.27
2018-01-21T23:56:32.095Z,10.63
2018-01-21T23:58:58.296Z,10.23
